createdAt,value
2023-12-26T00:02:40.371Z,13.60
2023-12-26T00:05:47.944Z,13.20
2023-12-26T00:08:54.072Z,13.46
2023-12-26T00:11:59.839Z,13.14
2023-12-26T00:15:05.360Z,13.07
2023-12-26T00:18:12.080Z,13.31
2023-12-26T00:21:18.274Z,13.13
2023-12-26T00:24:23.315Z,13.29
2023-12-26T00:27:29.634Z,12.90
2023-12-26T00:30:34.719Z,13.29
2023-12-26T00:33:40.489Z,12.97
2023-12-26T00:36:45.791Z,12.54
2023-12-26T00:39:53.280Z,12.25
2023-12-26T00:43:00.150Z,11.97
2023-12-26T00:46:05.713Z,12.54
2023-12-26T00:49:11.765Z,12.15
2023-12-26T00:52:17.755Z,12.42
2023-12-26T00:55:24.163Z,12.12
2023-12-26T00:58:29.834Z,11.70
2023-12-26T01:01:35.123Z,11.93
2023-12-26T01:04:41.521Z,12.02
2023-12-26T01:07:49.060Z,11.70
2023-12-26T01:10:55.432Z,11.70
2023-12-26T01:14:00.810Z,11.87
2023-12-26T01:17:06.294Z,12.17
2023-12-26T01:20:12.648Z,12.46
2023-12-26T01:23:18.173Z,12.59
2023-12-26T01:26:23.490Z,12.57
2023-12-26T01:29:30.170Z,12.40
2023-12-26T01:32:36.558Z,12.10
2023-12-26T01:35:43.769Z,12.47
2023-12-26T01:38:49.526Z,12.34
2023-12-26T01:41:55.145Z,12.22
2023-12-26T01:44:59.516Z,12.54
2023-12-26T01:48:09.462Z,12.58
2023-12-26T01:51:15.374Z,12.76
2023-12-26T01:54:21.631Z,12.58
2023-12-26T01:57:28.162Z,12.44
2023-12-26T02:00:32.750Z,12.19
2023-12-26T02:03:41.718Z,12.29
2023-12-26T02:06:47.861Z,12.57
2023-12-26T02:09:54.167Z,11.24
2023-12-26T02:13:03.784Z,11.05
2023-12-26T02:16:08.704Z,10.70
2023-12-26T02:19:14.154Z,11.97
2023-12-26T02:22:19.311Z,12.18
2023-12-26T02:25:26.051Z,12.37
2023-12-26T02:28:31.781Z,12.41
2023-12-26T02:31:38.404Z,12.46
2023-12-26T02:34:44.059Z,13.00
2023-12-26T02:37:49.773Z,12.90
2023-12-26T02:40:58.624Z,12.95
2023-12-26T02:44:04.200Z,12.92
2023-12-26T02:47:09.558Z,12.81
2023-12-26T02:50:16.072Z,12.87
2023-12-26T02:53:21.093Z,12.93
2023-12-26T02:56:27.165Z,12.79
2023-12-26T02:59:33.040Z,12.59
2023-12-26T03:02:39.497Z,12.87
2023-12-26T03:05:45.987Z,12.91
2023-12-26T03:08:52.948Z,12.87
2023-12-26T03:11:59.544Z,12.74
2023-12-26T03:15:06.179Z,12.82
2023-12-26T03:18:12.563Z,12.61
2023-12-26T03:21:11.855Z,12.86
2023-12-26T03:24:17.849Z,12.57
2023-12-26T03:27:23.121Z,12.50
2023-12-26T03:30:28.223Z,12.48
2023-12-26T03:33:35.274Z,12.73
2023-12-26T03:36:42.169Z,12.62
2023-12-26T03:39:48.790Z,12.87
2023-12-26T03:42:54.838Z,13.02
2023-12-26T03:46:00.823Z,12.89
2023-12-26T03:49:06.752Z,12.95
2023-12-26T03:52:11.738Z,12.85
2023-12-26T03:55:18.829Z,12.71
2023-12-26T03:58:24.688Z,12.24
2023-12-26T04:01:30.631Z,12.23
2023-12-26T04:04:36.477Z,12.25
2023-12-26T04:07:43.089Z,12.13
2023-12-26T04:10:48.429Z,12.01
2023-12-26T04:13:54.660Z,11.91
2023-12-26T04:16:59.563Z,11.91
2023-12-26T04:20:05.257Z,11.93
2023-12-26T04:23:11.347Z,12.01
2023-12-26T04:26:17.258Z,11.77
2023-12-26T04:29:22.133Z,11.95
2023-12-26T04:32:27.837Z,11.95
2023-12-26T04:35:34.205Z,11.83
2023-12-26T04:38:40.668Z,11.93
2023-12-26T04:41:47.977Z,11.93
2023-12-26T04:44:54.600Z,12.01
2023-12-26T04:47:59.954Z,12.06
2023-12-26T04:51:05.775Z,12.20
2023-12-26T04:54:12.356Z,12.30
2023-12-26T04:57:19.451Z,12.27
2023-12-26T05:00:27.079Z,12.27
2023-12-26T05:03:33.312Z,12.07
2023-12-26T05:06:39.884Z,12.18
2023-12-26T05:09:46.653Z,12.44
2023-12-26T05:12:54.332Z,12.07
2023-12-26T05:15:59.949Z,12.06
2023-12-26T05:19:06.003Z,12.08
2023-12-26T05:22:11.522Z,11.89
2023-12-26T05:25:19.046Z,11.99
2023-12-26T05:28:25.461Z,11.88
2023-12-26T05:31:36.187Z,11.83
2023-12-26T05:34:43.491Z,11.90
2023-12-26T05:37:48.582Z,12.23
2023-12-26T05:40:54.211Z,12.16
2023-12-26T05:44:00.051Z,12.13
2023-12-26T05:47:06.057Z,12.12
2023-12-26T05:50:12.264Z,12.24
2023-12-26T05:53:19.676Z,11.93
2023-12-26T05:56:25.401Z,12.10
2023-12-26T05:59:31.174Z,12.22
2023-12-26T06:02:37.296Z,12.21
2023-12-26T06:05:45.168Z,12.50
2023-12-26T06:08:51.759Z,12.65
2023-12-26T06:11:58.300Z,12.63
2023-12-26T06:15:04.955Z,12.42
2023-12-26T06:18:10.756Z,12.42
2023-12-26T06:21:16.901Z,12.25
2023-12-26T06:24:24.580Z,12.42
2023-12-26T06:27:30.421Z,12.24
2023-12-26T06:30:35.981Z,12.17
2023-12-26T06:33:43.339Z,12.37
2023-12-26T06:36:49.905Z,12.44
2023-12-26T06:39:56.592Z,12.42
2023-12-26T06:43:02.446Z,12.45
2023-12-26T06:46:08.032Z,12.64
2023-12-26T06:49:14.784Z,12.68
2023-12-26T06:52:19.081Z,12.86
2023-12-26T06:55:29.141Z,12.90
2023-12-26T06:58:35.841Z,12.45
2023-12-26T07:01:42.279Z,13.03
2023-12-26T07:04:47.356Z,12.57
2023-12-26T07:07:53.494Z,12.82
2023-12-26T07:11:00.280Z,13.38
2023-12-26T07:14:06.193Z,13.10
2023-12-26T07:17:12.583Z,13.10
2023-12-26T07:20:18.909Z,13.30
2023-12-26T07:23:25.493Z,13.13
2023-12-26T07:26:31.014Z,13.16
2023-12-26T07:29:38.109Z,13.36
2023-12-26T07:32:46.777Z,13.66
2023-12-26T07:35:53.556Z,13.71
2023-12-26T07:38:58.691Z,13.66
2023-12-26T07:42:04.015Z,13.53
2023-12-26T07:45:12.284Z,13.59
2023-12-26T07:48:19.751Z,13.62
2023-12-26T07:51:28.054Z,13.95
2023-12-26T07:54:33.486Z,13.70
2023-12-26T07:57:39.596Z,13.53
2023-12-26T08:00:45.087Z,13.62
2023-12-26T08:03:51.604Z,13.75
2023-12-26T08:06:58.586Z,13.73
2023-12-26T08:10:04.311Z,13.81
2023-12-26T08:13:11.353Z,13.86
2023-12-26T08:16:21.629Z,14.04
2023-12-26T08:19:27.189Z,14.17
2023-12-26T08:22:34.176Z,14.13
2023-12-26T08:25:40.046Z,13.95
2023-12-26T08:28:46.333Z,14.01
2023-12-26T08:31:52.331Z,14.13
2023-12-26T08:34:58.896Z,14.12
2023-12-26T08:38:06.786Z,14.34
2023-12-26T08:41:14.241Z,14.10
2023-12-26T08:44:24.647Z,14.10
2023-12-26T08:47:29.818Z,13.83
2023-12-26T08:50:36.618Z,14.17
2023-12-26T08:53:41.684Z,14.23
2023-12-26T08:56:51.725Z,14.21
2023-12-26T08:59:58.745Z,14.38
2023-12-26T09:26:16.301Z,10.34
2023-12-26T09:29:22.067Z,10.72
2023-12-26T09:32:22.897Z,10.82
2023-12-26T09:35:09.790Z,11.57
2023-12-26T09:38:03.380Z,9.73
2023-12-26T09:40:50.652Z,10.25
2023-12-26T09:43:44.176Z,11.14
2023-12-26T09:46:37.072Z,11.12
2023-12-26T09:49:43.444Z,11.88
2023-12-26T09:52:49.830Z,12.26
2023-12-26T09:55:57.773Z,12.36
2023-12-26T09:59:04.436Z,11.29
2023-12-26T10:02:09.720Z,11.07
2023-12-26T10:05:16.428Z,11.10
2023-12-26T10:08:22.369Z,10.90
2023-12-26T10:11:29.014Z,11.26
2023-12-26T10:14:46.583Z,10.99
2023-12-26T10:17:54.073Z,10.33
2023-12-26T10:20:59.719Z,11.37
2023-12-26T10:24:06.489Z,11.34
2023-12-26T10:27:12.295Z,10.98
2023-12-26T10:30:18.563Z,10.54
2023-12-26T10:33:23.833Z,11.59
2023-12-26T10:36:30.021Z,10.39
2023-12-26T10:39:35.612Z,10.19
2023-12-26T10:42:41.167Z,9.30
2023-12-26T10:45:46.999Z,10.33
2023-12-26T10:48:53.086Z,10.08
2023-12-26T10:52:00.297Z,10.25
2023-12-26T10:55:08.458Z,10.64
2023-12-26T10:58:38.865Z,10.69
2023-12-26T11:02:38.550Z,10.68
2023-12-26T11:07:15.937Z,11.40
2023-12-26T11:11:51.848Z,11.75
2023-12-26T11:16:27.154Z,11.81
2023-12-26T11:21:03.446Z,12.10
2023-12-26T11:25:37.858Z,11.94
2023-12-26T11:30:16.188Z,12.26
2023-12-26T11:34:51.180Z,12.45
2023-12-26T11:39:27.049Z,12.46
2023-12-26T11:44:03.626Z,12.58
2023-12-26T11:48:41.754Z,12.83
2023-12-26T11:53:16.679Z,13.18
2023-12-26T11:57:52.843Z,13.62
2023-12-26T12:02:28.424Z,13.77
2023-12-26T12:07:06.220Z,13.46
2023-12-26T12:11:42.489Z,13.54
2023-12-26T12:16:17.661Z,13.76
2023-12-26T12:20:54.557Z,13.46
2023-12-26T12:25:30.174Z,13.22
2023-12-26T12:30:07.538Z,13.31
2023-12-26T12:34:43.277Z,13.16
2023-12-26T12:39:19.275Z,13.89
2023-12-26T12:43:54.536Z,13.16
2023-12-26T12:48:29.644Z,13.13
2023-12-26T12:53:06.735Z,13.11
2023-12-26T12:57:43.474Z,12.88
2023-12-26T13:02:25.545Z,13.19
2023-12-26T13:07:00.697Z,13.14
2023-12-26T13:11:35.947Z,13.49
2023-12-26T13:16:11.308Z,13.17
2023-12-26T13:20:47.256Z,13.30
2023-12-26T13:25:24.487Z,13.47
2023-12-26T13:30:00.921Z,13.58
2023-12-26T13:34:38.217Z,13.02
2023-12-26T13:39:13.380Z,13.58
2023-12-26T13:43:50.231Z,13.53
2023-12-26T13:48:26.860Z,13.40
2023-12-26T13:52:44.134Z,13.43
2023-12-26T13:56:43.410Z,12.58
2023-12-26T14:00:46.093Z,12.23
2023-12-26T14:04:48.552Z,12.27
2023-12-26T14:08:49.568Z,12.21
2023-12-26T14:12:49.858Z,11.99
2023-12-26T14:16:49.930Z,11.91
2023-12-26T14:20:50.286Z,11.91
2023-12-26T14:24:50.423Z,11.68
2023-12-26T14:28:50.577Z,11.92
2023-12-26T14:32:50.459Z,11.78
2023-12-26T14:36:53.332Z,11.78
2023-12-26T14:40:54.264Z,11.94
2023-12-26T14:44:35.891Z,12.20
2023-12-26T14:56:50.431Z,11.71
2023-12-26T15:00:51.000Z,11.97
2023-12-26T15:03:57.638Z,11.68
2023-12-26T15:07:03.821Z,11.18
2023-12-26T15:10:10.274Z,11.40
2023-12-26T15:13:25.247Z,11.61
2023-12-26T15:20:52.027Z,11.46
2023-12-26T15:23:59.306Z,11.36
2023-12-26T15:27:05.299Z,11.19
2023-12-26T15:30:12.230Z,11.57
2023-12-26T15:33:18.699Z,11.36
2023-12-26T15:36:33.756Z,11.43
2023-12-26T15:39:39.602Z,11.91
2023-12-26T15:42:46.284Z,11.89
2023-12-26T15:45:54.776Z,11.75
2023-12-26T15:49:02.489Z,11.76
2023-12-26T15:52:07.989Z,11.91
2023-12-26T15:55:14.084Z,12.11
2023-12-26T15:58:20.787Z,11.85
2023-12-26T16:01:28.492Z,12.09
2023-12-26T16:04:35.777Z,12.43
2023-12-26T16:07:42.388Z,11.89
2023-12-26T16:10:48.617Z,12.32
2023-12-26T16:13:55.201Z,11.94
2023-12-26T16:17:00.305Z,11.73
2023-12-26T16:20:04.999Z,12.11
2023-12-26T16:23:12.047Z,12.02
2023-12-26T16:26:22.779Z,11.59
2023-12-26T16:29:28.373Z,11.83
2023-12-26T16:32:35.091Z,11.79
2023-12-26T16:35:44.116Z,11.74
2023-12-26T16:38:51.142Z,11.73
2023-12-26T16:42:01.994Z,12.01
2023-12-26T16:45:08.784Z,11.61
2023-12-26T16:48:15.595Z,11.98
2023-12-26T16:51:22.130Z,11.89
2023-12-26T16:54:28.002Z,12.36
2023-12-26T16:57:37.366Z,11.91
2023-12-26T17:00:45.711Z,11.76
2023-12-26T17:03:55.993Z,12.02
2023-12-26T17:07:02.913Z,11.85
2023-12-26T17:10:08.858Z,12.17
2023-12-26T17:13:19.144Z,12.32
2023-12-26T17:16:34.161Z,12.74
2023-12-26T17:19:43.297Z,12.56
2023-12-26T17:22:54.546Z,13.01
2023-12-26T17:26:03.427Z,12.98
2023-12-26T17:29:08.279Z,13.09
2023-12-26T17:32:17.418Z,11.94
2023-12-26T17:35:24.889Z,12.32
2023-12-26T17:38:30.738Z,12.68
2023-12-26T17:41:41.931Z,12.60
2023-12-26T17:44:58.552Z,12.48
2023-12-26T17:48:05.729Z,12.53
2023-12-26T17:51:12.436Z,12.25
2023-12-26T17:54:22.096Z,12.18
2023-12-26T17:57:29.320Z,12.32
2023-12-26T18:00:37.047Z,12.47
2023-12-26T18:03:46.066Z,12.40
2023-12-26T18:06:53.444Z,12.60
2023-12-26T18:10:00.484Z,12.63
2023-12-26T18:13:07.595Z,12.52
2023-12-26T18:16:16.733Z,12.88
2023-12-26T18:19:23.137Z,12.69
2023-12-26T18:22:31.369Z,12.61
2023-12-26T18:25:41.372Z,12.64
2023-12-26T18:28:48.770Z,12.64
2023-12-26T18:31:54.214Z,12.48
2023-12-26T18:35:02.141Z,12.68
2023-12-26T18:38:07.577Z,12.74
2023-12-26T18:41:15.819Z,12.66
2023-12-26T18:44:26.026Z,12.77
2023-12-26T18:47:38.220Z,12.47
2023-12-26T18:50:46.618Z,12.62
2023-12-26T18:53:54.823Z,12.54
2023-12-26T18:57:02.387Z,12.48
2023-12-26T19:00:12.444Z,12.51
2023-12-26T19:03:19.115Z,12.85
2023-12-26T19:06:29.404Z,12.52
2023-12-26T19:09:36.126Z,12.96
2023-12-26T19:12:45.452Z,12.77
2023-12-26T19:15:53.897Z,13.01
2023-12-26T19:19:03.733Z,12.70
2023-12-26T19:22:18.298Z,12.71
2023-12-26T19:25:27.422Z,12.94
2023-12-26T19:28:39.501Z,13.25
2023-12-26T19:31:48.020Z,13.09
2023-12-26T19:34:56.464Z,13.00
2023-12-26T19:38:06.207Z,12.92
2023-12-26T19:41:14.777Z,13.07
2023-12-26T19:44:25.076Z,13.18
2023-12-26T19:47:38.111Z,13.23
2023-12-26T19:50:48.952Z,13.38
2023-12-26T19:53:57.346Z,13.46
2023-12-26T19:57:04.155Z,13.38
2023-12-26T20:00:13.708Z,13.15
2023-12-26T20:03:22.677Z,13.03
2023-12-26T20:06:15.982Z,13.23
2023-12-26T20:09:26.720Z,13.08
2023-12-26T20:12:32.758Z,13.16
2023-12-26T20:15:39.754Z,13.40
2023-12-26T20:18:49.533Z,13.56
2023-12-26T20:21:56.582Z,13.74
2023-12-26T20:25:02.368Z,13.74
2023-12-26T20:28:11.284Z,13.88
2023-12-26T20:31:18.973Z,13.76
2023-12-26T20:34:26.806Z,13.38
2023-12-26T20:37:35.223Z,13.43
2023-12-26T20:40:41.520Z,13.27
2023-12-26T20:43:47.653Z,13.62
2023-12-26T20:46:55.130Z,13.55
2023-12-26T20:50:01.547Z,13.40
2023-12-26T20:53:09.192Z,13.35
2023-12-26T20:56:19.248Z,13.61
2023-12-26T20:59:30.943Z,13.42
2023-12-26T21:02:42.175Z,13.38
2023-12-26T21:05:51.157Z,13.21
2023-12-26T21:08:58.987Z,13.15
2023-12-26T21:12:05.322Z,13.07
2023-12-26T21:15:12.432Z,13.14
2023-12-26T21:18:19.139Z,13.02
2023-12-26T21:21:24.816Z,13.15
2023-12-26T21:24:31.392Z,13.02
2023-12-26T21:27:38.441Z,13.18
2023-12-26T21:30:44.621Z,13.09
2023-12-26T21:33:53.724Z,13.02
2023-12-26T21:37:00.935Z,12.91
2023-12-26T21:40:08.797Z,12.59
2023-12-26T21:43:15.841Z,13.10
2023-12-26T21:46:27.652Z,12.85
2023-12-26T21:49:34.725Z,12.81
2023-12-26T21:52:42.556Z,12.46
2023-12-26T21:55:49.960Z,13.05
2023-12-26T21:58:55.834Z,13.10
2023-12-26T22:02:00.946Z,13.19
2023-12-26T22:05:06.389Z,12.98
2023-12-26T22:08:12.674Z,13.03
2023-12-26T22:11:18.930Z,13.32
2023-12-26T22:14:24.857Z,13.50
2023-12-26T22:17:30.535Z,13.72
2023-12-26T22:20:37.073Z,13.58
2023-12-26T22:23:45.504Z,13.45
2023-12-26T22:26:51.233Z,13.10
2023-12-26T22:29:58.493Z,13.11
2023-12-26T22:33:04.954Z,13.41
2023-12-26T22:36:11.675Z,13.17
2023-12-26T22:39:17.580Z,13.25
2023-12-26T22:42:24.260Z,13.09
2023-12-26T22:45:29.931Z,13.47
2023-12-26T22:48:39.459Z,13.36
2023-12-26T22:51:43.781Z,12.94
2023-12-26T22:54:50.668Z,13.03
2023-12-26T22:57:57.660Z,12.97
2023-12-26T23:01:03.433Z,13.20
2023-12-26T23:04:08.686Z,13.05
2023-12-26T23:07:13.693Z,13.02
2023-12-26T23:10:21.162Z,13.18
2023-12-26T23:13:26.840Z,13.10
2023-12-26T23:16:32.866Z,13.17
2023-12-26T23:19:39.226Z,13.36
2023-12-26T23:22:44.996Z,13.50
2023-12-26T23:25:50.048Z,13.71
2023-12-26T23:28:56.111Z,13.75
2023-12-26T23:32:04.081Z,13.72
2023-12-26T23:35:12.008Z,13.94
2023-12-26T23:38:18.571Z,14.14
2023-12-26T23:41:24.802Z,14.26
2023-12-26T23:44:29.897Z,14.05
2023-12-26T23:47:35.975Z,13.94
2023-12-26T23:50:42.510Z,13.50
2023-12-26T23:53:48.268Z,13.53
2023-12-26T23:56:54.497Z,13.45
